createdAt,value
2019-04-10T00:01:07.485Z,8.60
2019-04-10T00:03:39.123Z,8.33
2019-04-10T00:06:08.825Z,6.37
2019-04-10T00:08:39.310Z,8.50
2019-04-10T00:11:10.181Z,7.23
2019-04-10T00:13:40.729Z,8.37
2019-04-10T00:16:13.922Z,8.73
2019-04-10T00:18:44.483Z,8.00
2019-04-10T00:21:15.525Z,7.27
2019-04-10T00:23:47.089Z,8.40
2019-04-10T00:26:17.783Z,8.80
2019-04-10T00:28:48.411Z,8.10
2019-04-10T00:31:19.758Z,8.10
2019-04-10T00:33:51.367Z,9.10
2019-04-10T00:36:22.050Z,8.07
2019-04-10T00:38:52.558Z,9.57
2019-04-10T00:41:24.083Z,8.43
2019-04-10T00:43:55.242Z,7.93
2019-04-10T00:46:26.944Z,9.00
2019-04-10T00:48:58.605Z,8.00
2019-04-10T00:51:31.016Z,8.37
2019-04-10T00:54:01.706Z,9.50
2019-04-10T00:56:33.387Z,8.97
2019-04-10T00:59:03.925Z,9.83
2019-04-10T01:01:34.473Z,9.57
2019-04-10T01:04:08.011Z,11.50
2019-04-10T01:06:38.604Z,9.20
2019-04-10T01:09:10.662Z,9.27
2019-04-10T01:11:41.420Z,8.77
2019-04-10T01:14:12.152Z,8.80
2019-04-10T01:16:42.638Z,7.63
2019-04-10T01:19:13.367Z,7.33
2019-04-10T01:21:44.295Z,7.60
2019-04-10T01:24:14.818Z,7.97
2019-04-10T01:26:45.496Z,8.03
2019-04-10T01:29:16.230Z,8.70
2019-04-10T01:31:47.645Z,8.60
2019-04-10T01:34:19.042Z,8.90
2019-04-10T01:36:49.540Z,9.17
2019-04-10T01:39:24.260Z,7.37
2019-04-10T01:41:54.933Z,6.57
2019-04-10T01:44:28.800Z,8.97
2019-04-10T01:46:59.432Z,5.93
2019-04-10T01:49:33.658Z,7.53
2019-04-10T01:52:04.814Z,7.40
2019-04-10T01:54:39.560Z,6.80
2019-04-10T01:57:10.439Z,6.40
2019-04-10T01:59:42.416Z,6.50
2019-04-10T02:02:25.360Z,7.00
2019-04-10T02:04:56.793Z,7.97
2019-04-10T02:07:27.462Z,8.20
2019-04-10T02:09:59.534Z,8.30
2019-04-10T02:12:30.407Z,6.67
2019-04-10T02:15:01.034Z,6.73
2019-04-10T02:17:32.710Z,7.00
2019-04-10T02:20:03.424Z,4.80
2019-04-10T02:22:34.030Z,7.00
2019-04-10T02:25:05.255Z,7.60
2019-04-10T02:27:35.888Z,6.37
2019-04-10T02:30:08.113Z,6.77
2019-04-10T02:32:41.143Z,6.43
2019-04-10T02:35:15.236Z,6.67
2019-04-10T02:37:43.658Z,6.60
2019-04-10T02:40:15.159Z,6.87
2019-04-10T02:42:47.382Z,6.53
2019-04-10T02:45:19.092Z,6.00
2019-04-10T02:47:50.939Z,7.73
2019-04-10T02:50:21.835Z,7.00
2019-04-10T02:52:52.474Z,7.33
2019-04-10T02:55:23.174Z,6.87
2019-04-10T02:57:54.303Z,7.50
2019-04-10T03:00:26.906Z,8.53
2019-04-10T03:02:59.300Z,6.93
2019-04-10T03:05:30.502Z,8.90
2019-04-10T03:08:01.986Z,10.90
2019-04-10T03:10:41.264Z,10.20
2019-04-10T03:13:05.189Z,8.37
2019-04-10T03:15:36.037Z,8.17
2019-04-10T03:18:06.857Z,8.07
2019-04-10T03:20:38.400Z,8.10
2019-04-10T03:23:11.542Z,8.33
2019-04-10T03:25:43.272Z,7.87
2019-04-10T03:28:19.258Z,7.27
2019-04-10T03:30:49.715Z,8.10
2019-04-10T03:33:41.983Z,7.73
2019-04-10T03:36:13.864Z,8.23
2019-04-10T03:38:55.334Z,8.17
2019-04-10T03:41:17.758Z,9.50
2019-04-10T03:43:48.499Z,9.67
2019-04-10T03:46:19.542Z,9.40
2019-04-10T03:48:53.506Z,10.53
2019-04-10T03:51:28.242Z,9.83
2019-04-10T03:53:58.893Z,10.90
2019-04-10T03:56:29.721Z,12.13
2019-04-10T03:59:00.541Z,10.97
2019-04-10T04:01:32.064Z,11.53
2019-04-10T04:04:02.854Z,12.40
2019-04-10T04:06:33.468Z,12.37
2019-04-10T04:09:09.572Z,11.20
2019-04-10T04:11:37.917Z,9.83
2019-04-10T04:14:08.406Z,9.37
2019-04-10T04:16:39.407Z,8.33
2019-04-10T04:19:11.170Z,7.80
2019-04-10T04:21:41.898Z,9.20
2019-04-10T04:24:12.415Z,8.57
2019-04-10T04:26:43.563Z,8.90
2019-04-10T04:29:14.417Z,8.80
2019-04-10T04:31:45.286Z,7.57
2019-04-10T04:34:15.857Z,9.87
2019-04-10T04:36:48.786Z,13.80
2019-04-10T04:39:24.909Z,17.00
2019-04-10T04:41:52.046Z,12.53
2019-04-10T04:44:22.802Z,12.20
2019-04-10T04:46:53.363Z,11.33
2019-04-10T04:49:24.329Z,10.63
2019-04-10T04:51:55.165Z,9.63
2019-04-10T04:54:25.742Z,9.37
2019-04-10T04:56:56.413Z,9.83
2019-04-10T04:59:28.168Z,9.53
2019-04-10T05:01:58.631Z,9.70
2019-04-10T05:04:32.326Z,10.40
2019-04-10T05:07:02.232Z,9.80
2019-04-10T05:09:36.928Z,10.77
2019-04-10T05:12:05.324Z,9.60
2019-04-10T05:14:35.768Z,9.70
2019-04-10T05:17:06.381Z,9.83
2019-04-10T05:19:38.251Z,8.83
2019-04-10T05:22:10.126Z,9.07
2019-04-10T05:24:40.974Z,6.83
2019-04-10T05:27:11.914Z,7.93
2019-04-10T05:29:42.993Z,6.60
2019-04-10T05:32:14.532Z,4.97
2019-04-10T05:34:46.685Z,6.17
2019-04-10T05:37:17.427Z,5.37
2019-04-10T05:39:50.773Z,6.60
2019-04-10T05:42:20.646Z,7.50
2019-04-10T05:44:52.213Z,6.33
2019-04-10T05:47:26.214Z,6.43
2019-04-10T05:49:57.686Z,5.00
2019-04-10T05:52:28.910Z,6.43
2019-04-10T05:54:59.916Z,6.57
2019-04-10T05:57:30.982Z,7.17
2019-04-10T06:00:08.296Z,6.37
2019-04-10T06:02:39.816Z,6.10
2019-04-10T06:05:11.032Z,6.43
2019-04-10T06:07:41.510Z,6.37
2019-04-10T06:10:13.331Z,6.13
2019-04-10T06:12:44.770Z,5.70
2019-04-10T06:15:16.824Z,6.10
2019-04-10T06:17:47.540Z,5.77
2019-04-10T06:20:18.196Z,6.07
2019-04-10T06:22:50.608Z,5.87
2019-04-10T06:25:24.005Z,6.30
2019-04-10T06:27:54.003Z,6.90
2019-04-10T06:30:24.567Z,5.57
2019-04-10T06:32:55.739Z,6.23
2019-04-10T06:35:26.567Z,6.10
2019-04-10T06:37:57.401Z,6.10
2019-04-10T06:40:29.391Z,5.43
2019-04-10T06:43:01.053Z,5.93
2019-04-10T06:45:31.709Z,4.77
2019-04-10T06:48:02.742Z,4.67
2019-04-10T06:50:33.644Z,5.87
2019-04-10T06:53:04.488Z,6.40
2019-04-10T06:55:36.368Z,5.70
2019-04-10T06:58:07.621Z,4.90
2019-04-10T07:00:39.068Z,4.97
2019-04-10T07:03:10.675Z,5.73
2019-04-10T07:05:56.312Z,6.83
2019-04-10T07:08:19.055Z,6.43
2019-04-10T07:10:56.181Z,6.47
2019-04-10T07:13:20.896Z,6.43
2019-04-10T07:15:54.390Z,6.30
2019-04-10T07:18:24.290Z,6.33
2019-04-10T07:20:59.247Z,5.33
2019-04-10T07:23:30.206Z,6.53
2019-04-10T07:26:01.710Z,6.20
2019-04-10T07:28:33.544Z,5.17
2019-04-10T07:31:07.260Z,6.07
2019-04-10T07:33:37.317Z,5.73
2019-04-10T07:36:11.374Z,5.90
2019-04-10T07:38:41.261Z,5.50
2019-04-10T07:41:19.422Z,5.90
2019-04-10T07:43:44.769Z,6.43
2019-04-10T07:46:15.678Z,5.07
2019-04-10T07:48:46.515Z,5.93
2019-04-10T07:51:17.254Z,5.43
2019-04-10T07:53:49.005Z,6.13
2019-04-10T07:56:20.936Z,5.93
2019-04-10T07:58:51.892Z,6.40
2019-04-10T08:01:22.659Z,5.50
2019-04-10T08:03:54.003Z,5.63
2019-04-10T08:06:25.685Z,5.37
2019-04-10T08:08:56.575Z,5.73
2019-04-10T08:11:27.397Z,5.00
2019-04-10T08:13:59.156Z,5.87
2019-04-10T08:16:30.781Z,4.70
2019-04-10T08:19:01.924Z,6.50
2019-04-10T08:21:33.861Z,3.93
2019-04-10T08:24:04.675Z,6.07
2019-04-10T08:26:36.652Z,5.20
2019-04-10T08:29:07.760Z,5.57
2019-04-10T08:31:39.638Z,5.73
2019-04-10T08:34:10.998Z,5.60
2019-04-10T08:36:41.914Z,5.90
2019-04-10T08:39:14.403Z,5.23
2019-04-10T08:41:46.035Z,6.00
2019-04-10T08:44:17.715Z,4.93
2019-04-10T08:46:48.680Z,6.00
2019-04-10T08:49:21.269Z,6.13
2019-04-10T08:51:52.134Z,5.87
2019-04-10T08:54:23.845Z,5.90
2019-04-10T08:56:54.802Z,5.70
2019-04-10T08:59:27.724Z,5.77
2019-04-10T09:01:59.817Z,5.30
2019-04-10T09:04:31.189Z,5.73
2019-04-10T09:07:03.830Z,5.20
2019-04-10T09:09:35.607Z,4.70
2019-04-10T09:12:07.275Z,5.30
2019-04-10T09:14:37.834Z,5.37
2019-04-10T09:17:11.802Z,5.13
2019-04-10T09:19:42.706Z,5.47
2019-04-10T09:22:14.145Z,4.90
2019-04-10T09:24:44.967Z,4.53
2019-04-10T09:27:17.197Z,5.50
2019-04-10T09:29:48.588Z,4.80
2019-04-10T09:32:20.128Z,5.47
2019-04-10T09:34:52.065Z,5.00
2019-04-10T09:37:24.153Z,5.60
2019-04-10T09:39:58.068Z,5.37
2019-04-10T09:42:29.827Z,5.10
2019-04-10T09:45:00.689Z,5.13
2019-04-10T09:47:32.514Z,5.90
2019-04-10T09:50:03.805Z,5.03
2019-04-10T09:52:35.681Z,5.47
2019-04-10T09:55:07.683Z,3.53
2019-04-10T09:57:38.406Z,4.73
2019-04-10T10:00:10.596Z,5.10
2019-04-10T10:02:45.189Z,5.37
2019-04-10T10:05:18.158Z,4.90
2019-04-10T10:07:50.705Z,4.90
2019-04-10T10:10:22.644Z,4.87
2019-04-10T10:12:53.761Z,5.23
2019-04-10T10:15:25.256Z,4.70
2019-04-10T10:17:57.138Z,5.13
2019-04-10T10:20:29.205Z,5.37
2019-04-10T10:23:01.211Z,5.47
2019-04-10T10:25:33.262Z,5.77
2019-04-10T10:28:04.881Z,5.20
2019-04-10T10:30:35.779Z,5.70
2019-04-10T10:33:07.654Z,4.80
2019-04-10T10:35:39.003Z,5.50
2019-04-10T10:38:10.538Z,4.80
2019-04-10T10:40:41.488Z,5.93
2019-04-10T10:43:12.182Z,4.80
2019-04-10T10:45:43.024Z,5.87
2019-04-10T10:48:13.790Z,5.43
2019-04-10T10:50:45.610Z,5.43
2019-04-10T10:53:16.575Z,5.23
2019-04-10T10:55:47.634Z,5.63
2019-04-10T10:58:19.672Z,5.37
2019-04-10T11:00:51.640Z,6.07
2019-04-10T11:03:22.833Z,6.20
2019-04-10T11:05:54.803Z,5.80
2019-04-10T11:08:26.860Z,6.13
2019-04-10T11:10:58.983Z,5.73
2019-04-10T11:13:30.869Z,6.10
2019-04-10T11:16:04.325Z,6.20
2019-04-10T11:18:35.362Z,6.50
2019-04-10T11:21:09.737Z,6.77
2019-04-10T11:23:38.551Z,6.27
2019-04-10T11:26:14.049Z,6.30
2019-04-10T11:28:45.490Z,6.00
2019-04-10T11:31:17.923Z,6.03
2019-04-10T11:33:52.927Z,5.93
2019-04-10T11:36:21.420Z,6.23
2019-04-10T11:39:09.191Z,5.07
2019-04-10T11:41:29.956Z,4.73
2019-04-10T11:44:02.660Z,6.20
2019-04-10T11:46:35.298Z,6.17
2019-04-10T11:49:07.446Z,6.40
2019-04-10T11:51:38.921Z,5.63
2019-04-10T11:54:13.026Z,4.43
2019-04-10T11:56:43.069Z,5.37
2019-04-10T11:59:14.991Z,5.20
2019-04-10T12:01:46.782Z,5.47
2019-04-10T12:04:19.990Z,5.40
2019-04-10T12:06:54.061Z,5.73
2019-04-10T12:10:18.344Z,5.93
2019-04-10T12:11:55.828Z,4.47
2019-04-10T12:14:27.761Z,5.20
2019-04-10T12:16:58.542Z,5.87
2019-04-10T12:19:29.587Z,5.67
2019-04-10T12:22:00.437Z,5.50
2019-04-10T12:24:32.407Z,6.17
2019-04-10T12:27:04.436Z,5.70
2019-04-10T12:29:35.352Z,5.00
2019-04-10T12:32:06.299Z,4.90
2019-04-10T12:34:37.151Z,4.83
2019-04-10T12:37:08.923Z,4.53
2019-04-10T12:39:39.802Z,5.73
2019-04-10T12:42:10.476Z,5.93
2019-04-10T12:44:41.230Z,4.93
2019-04-10T12:47:12.011Z,5.90
2019-04-10T12:49:43.558Z,5.67
2019-04-10T12:52:14.686Z,5.70
2019-04-10T12:54:45.331Z,5.73
2019-04-10T12:57:16.999Z,5.80
2019-04-10T12:59:47.840Z,5.77
2019-04-10T13:02:18.585Z,6.10
2019-04-10T13:04:49.128Z,5.63
2019-04-10T13:07:19.764Z,5.63
2019-04-10T13:09:50.507Z,5.97
2019-04-10T13:12:21.258Z,6.47
2019-04-10T13:14:51.909Z,6.13
2019-04-10T13:17:22.796Z,6.00
2019-04-10T13:19:53.476Z,5.87
2019-04-10T13:22:25.081Z,6.90
2019-04-10T13:24:56.030Z,6.07
2019-04-10T13:27:26.686Z,6.60
2019-04-10T13:30:00.673Z,6.07
2019-04-10T13:32:31.893Z,5.70
2019-04-10T13:35:02.487Z,6.57
2019-04-10T13:37:33.723Z,5.70
2019-04-10T13:40:05.606Z,6.53
2019-04-10T13:42:37.166Z,3.63
2019-04-10T13:45:09.042Z,6.13
2019-04-10T13:47:40.768Z,6.57
2019-04-10T13:50:12.731Z,6.90
2019-04-10T13:52:45.970Z,7.70
2019-04-10T13:55:16.980Z,7.03
2019-04-10T13:57:48.784Z,7.63
2019-04-10T14:00:38.417Z,7.00
2019-04-10T14:03:08.401Z,7.37
2019-04-10T14:05:39.170Z,6.77
2019-04-10T14:08:12.469Z,8.13
2019-04-10T14:10:44.509Z,8.53
2019-04-10T14:13:15.717Z,6.87
2019-04-10T14:15:46.839Z,9.13
2019-04-10T14:18:18.348Z,7.53
2019-04-10T14:20:49.275Z,8.40
2019-04-10T14:23:26.516Z,6.93
2019-04-10T14:26:17.260Z,6.43
2019-04-10T14:28:49.350Z,7.87
2019-04-10T14:31:29.270Z,6.90
2019-04-10T14:33:59.941Z,7.30
2019-04-10T14:36:31.791Z,7.37
2019-04-10T14:39:12.146Z,8.13
2019-04-10T14:41:36.641Z,9.57
2019-04-10T14:44:08.226Z,8.57
2019-04-10T14:46:40.067Z,8.40
2019-04-10T14:49:11.118Z,9.60
2019-04-10T14:51:42.001Z,8.53
2019-04-10T14:54:13.348Z,9.60
2019-04-10T14:56:44.420Z,9.90
2019-04-10T14:59:17.798Z,8.20
2019-04-10T15:01:48.567Z,8.80
2019-04-10T15:04:19.482Z,11.17
2019-04-10T15:06:50.121Z,12.30
2019-04-10T15:09:25.910Z,6.63
2019-04-10T15:11:55.972Z,8.50
2019-04-10T15:14:27.733Z,8.77
2019-04-10T15:17:01.829Z,7.90
2019-04-10T15:19:32.315Z,8.67
2019-04-10T15:22:03.272Z,9.17
2019-04-10T15:24:33.867Z,8.13
2019-04-10T15:27:07.401Z,8.83
2019-04-10T15:29:40.916Z,8.87
2019-04-10T15:32:12.757Z,9.53
2019-04-10T15:34:43.784Z,9.40
2019-04-10T15:37:15.198Z,9.50
2019-04-10T15:39:46.396Z,9.97
2019-04-10T15:42:19.668Z,10.43
2019-04-10T15:44:50.460Z,7.03
2019-04-10T15:47:23.176Z,10.03
2019-04-10T15:49:53.613Z,6.57
2019-04-10T15:52:24.194Z,8.77
2019-04-10T15:54:55.434Z,11.13
2019-04-10T15:57:26.935Z,13.93
2019-04-10T15:59:59.207Z,9.07
2019-04-10T16:02:29.993Z,11.97
2019-04-10T16:05:01.443Z,10.60
2019-04-10T16:07:32.630Z,9.00
2019-04-10T16:10:23.127Z,9.30
2019-04-10T16:15:39.122Z,6.93
2019-04-10T16:18:13.610Z,6.60
2019-04-10T16:20:45.201Z,8.13
2019-04-10T16:23:21.844Z,8.60
2019-04-10T16:25:54.472Z,8.20
2019-04-10T16:28:25.068Z,8.23
2019-04-10T16:30:57.123Z,7.40
2019-04-10T16:33:27.831Z,7.87
2019-04-10T16:35:59.062Z,7.83
2019-04-10T16:38:30.976Z,8.70
2019-04-10T16:41:02.715Z,6.87
2019-04-10T16:43:33.640Z,5.13
2019-04-10T16:46:04.929Z,8.53
2019-04-10T16:48:35.933Z,8.53
2019-04-10T16:51:06.409Z,8.63
2019-04-10T16:53:38.049Z,11.57
2019-04-10T16:56:09.796Z,10.33
2019-04-10T16:58:41.253Z,9.90
2019-04-10T17:01:14.647Z,8.33
2019-04-10T17:03:46.287Z,10.57
2019-04-10T17:06:17.809Z,9.50
2019-04-10T17:08:48.685Z,11.17
2019-04-10T17:11:19.440Z,12.70
2019-04-10T17:13:50.898Z,12.23
2019-04-10T17:16:22.015Z,14.80
2019-04-10T17:18:53.158Z,14.60
2019-04-10T17:21:25.716Z,13.27
2019-04-10T17:23:56.749Z,15.90
2019-04-10T17:26:27.616Z,18.17
2019-04-10T17:28:58.879Z,16.40
2019-04-10T17:31:30.790Z,13.83
2019-04-10T17:34:02.803Z,12.90
2019-04-10T17:36:34.738Z,11.17
2019-04-10T17:39:11.468Z,11.37
2019-04-10T17:41:43.893Z,12.50
2019-04-10T17:44:15.797Z,13.90
2019-04-10T17:46:49.117Z,17.13
2019-04-10T17:49:21.364Z,16.97
2019-04-10T17:51:52.713Z,19.53
2019-04-10T17:54:23.261Z,18.13
2019-04-10T17:56:54.888Z,16.27
2019-04-10T17:59:26.713Z,21.03
2019-04-10T18:02:01.157Z,12.67
2019-04-10T18:04:33.853Z,16.17
2019-04-10T18:07:05.999Z,15.30
2019-04-10T18:09:38.778Z,19.97
2019-04-10T18:12:10.556Z,20.93
2019-04-10T18:14:42.608Z,20.03
2019-04-10T18:17:14.497Z,19.50
2019-04-10T18:19:46.192Z,21.07
2019-04-10T18:22:16.910Z,18.50
2019-04-10T18:24:49.761Z,15.80
2019-04-10T18:27:21.057Z,16.90
2019-04-10T18:29:52.468Z,13.07
2019-04-10T18:32:23.483Z,11.37
2019-04-10T18:34:54.186Z,11.27
2019-04-10T18:37:25.648Z,13.53
2019-04-10T18:39:57.039Z,17.07
2019-04-10T18:42:28.684Z,17.17
2019-04-10T18:44:59.659Z,15.83
2019-04-10T18:47:32.360Z,15.37
2019-04-10T18:50:03.036Z,16.50
2019-04-10T18:52:35.167Z,18.17
2019-04-10T18:55:06.247Z,16.33
2019-04-10T18:57:37.025Z,15.97
2019-04-10T19:00:28.132Z,15.83
2019-04-10T19:03:17.808Z,18.67
2019-04-10T19:05:52.549Z,14.57
2019-04-10T19:08:24.006Z,13.67
2019-04-10T19:11:08.115Z,14.23
2019-04-10T19:13:30.944Z,11.70
2019-04-10T19:16:03.794Z,14.70
2019-04-10T19:18:35.582Z,13.67
2019-04-10T19:21:11.374Z,14.70
2019-04-10T19:23:43.416Z,14.20
2019-04-10T19:26:19.032Z,13.47
2019-04-10T19:28:50.729Z,14.17
2019-04-10T19:31:24.164Z,13.40
2019-04-10T19:33:54.881Z,13.03
2019-04-10T19:36:27.859Z,13.97
2019-04-10T19:38:58.609Z,14.67
2019-04-10T19:41:35.873Z,14.33
2019-04-10T19:44:02.466Z,15.37
2019-04-10T19:46:34.054Z,16.97
2019-04-10T19:49:06.068Z,15.70
2019-04-10T19:51:37.052Z,19.23
2019-04-10T19:54:09.643Z,20.30
2019-04-10T19:56:40.900Z,21.13
2019-04-10T19:59:12.003Z,17.97
2019-04-10T20:01:42.741Z,18.87
2019-04-10T20:04:14.494Z,17.53
2019-04-10T20:06:46.730Z,16.80
2019-04-10T20:09:18.467Z,16.13
2019-04-10T20:11:53.036Z,15.77
2019-04-10T20:14:22.134Z,13.77
2019-04-10T20:16:54.214Z,15.30
2019-04-10T20:19:25.059Z,16.67
2019-04-10T20:21:56.480Z,14.67
2019-04-10T20:24:29.193Z,14.83
2019-04-10T20:26:59.890Z,15.80
2019-04-10T20:29:30.988Z,16.77
2019-04-10T20:32:01.742Z,15.53
2019-04-10T20:34:33.630Z,16.17
2019-04-10T20:37:09.263Z,17.63
2019-04-10T20:39:37.098Z,16.17
2019-04-10T20:42:07.894Z,16.40
2019-04-10T20:44:38.470Z,14.07
2019-04-10T20:47:09.002Z,14.70
2019-04-10T20:49:40.550Z,16.30
2019-04-10T20:52:12.843Z,17.57
2019-04-10T20:54:44.488Z,16.40
2019-04-10T20:57:15.252Z,16.60
2019-04-10T20:59:45.709Z,17.23
2019-04-10T21:02:16.291Z,15.70
2019-04-10T21:04:54.441Z,15.23
2019-04-10T21:07:19.384Z,16.07
2019-04-10T21:09:50.248Z,15.27
2019-04-10T21:12:21.464Z,15.40
2019-04-10T21:14:53.085Z,15.23
2019-04-10T21:17:27.499Z,14.07
2019-04-10T21:20:00.084Z,15.27
2019-04-10T21:22:30.763Z,16.50
2019-04-10T21:25:02.749Z,19.43
2019-04-10T21:27:33.351Z,17.77
2019-04-10T21:30:22.577Z,16.07
2019-04-10T21:33:00.273Z,16.47
2019-04-10T21:35:35.009Z,15.73
2019-04-10T21:38:06.834Z,18.70
2019-04-10T21:40:39.023Z,17.33
2019-04-10T21:43:10.109Z,18.37
2019-04-10T21:45:41.313Z,19.60
2019-04-10T21:48:12.880Z,19.30
2019-04-10T21:50:43.954Z,20.73
2019-04-10T21:53:14.668Z,20.60
2019-04-10T21:55:45.867Z,24.30
2019-04-10T21:58:16.454Z,29.33
2019-04-10T22:01:01.490Z,28.33
2019-04-10T22:03:33.922Z,28.00
2019-04-10T22:06:26.034Z,20.90
2019-04-10T22:09:16.696Z,19.27
2019-04-10T22:11:50.671Z,21.37
2019-04-10T22:14:21.503Z,23.40
2019-04-10T22:16:52.559Z,25.40
2019-04-10T22:19:23.336Z,28.57
2019-04-10T22:21:53.966Z,24.53
2019-04-10T22:24:25.608Z,17.90
2019-04-10T22:26:56.473Z,16.53
2019-04-10T22:29:28.169Z,15.13
2019-04-10T22:31:59.843Z,13.83
2019-04-10T22:34:30.575Z,13.53
2019-04-10T22:37:02.211Z,14.87
2019-04-10T22:39:33.606Z,16.20
2019-04-10T22:42:05.346Z,16.07
2019-04-10T22:44:40.898Z,15.33
2019-04-10T22:47:09.341Z,15.63
2019-04-10T22:49:39.860Z,15.90
2019-04-10T22:52:10.924Z,16.53
2019-04-10T22:54:42.321Z,15.60
2019-04-10T22:57:12.876Z,16.67
2019-04-10T22:59:43.520Z,16.43
2019-04-10T23:02:15.077Z,16.37
2019-04-10T23:04:47.122Z,16.43
2019-04-10T23:07:17.880Z,18.17
2019-04-10T23:09:48.646Z,14.53
2019-04-10T23:12:20.345Z,16.93
2019-04-10T23:14:51.227Z,16.77
2019-04-10T23:17:24.311Z,16.17
2019-04-10T23:19:55.280Z,15.97
2019-04-10T23:22:25.800Z,13.40
2019-04-10T23:24:56.348Z,14.67
2019-04-10T23:27:28.194Z,14.93
2019-04-10T23:29:58.978Z,14.27
2019-04-10T23:32:29.564Z,13.63
2019-04-10T23:35:00.949Z,13.67
2019-04-10T23:37:32.956Z,13.10
2019-04-10T23:40:04.866Z,12.53
2019-04-10T23:42:35.795Z,13.73
2019-04-10T23:45:07.196Z,14.93
2019-04-10T23:47:37.759Z,14.00
2019-04-10T23:50:08.250Z,14.00
2019-04-10T23:52:38.747Z,14.03
2019-04-10T23:55:10.126Z,14.63
2019-04-10T23:57:41.195Z,14.77
